Majesty of the Seas — C6FZ8 — position and weather

sailwx.info

Track history (hours):
 
Tides and Currents Weather Stations Pressure Air Temp Water Temp Dewpoint Dewpoint Depression Visibility Wind Speed Wind Dir Waves Ship Positions

Majesty of the Seas (Bahamas)

Last reported at 2015-Aug-04 06:00 UTC. Time now 2015-Aug-04 15:56 UTC.
Position N 25°48' W 077°42'.

Length 268 m; draft 8 m.

Type: Passenger vessel. MMSI: 311734000.

Wind from 130 at 12 knots

Barometer 1017.0 mb
Air temperature 28.0 ° C
Dewpoint 23.9 ° C

Date/timePositionNaut miles runAvg speedWind from/ knotsBaromVisibWave heightAir tempDewpointWater temp
2015-Aug-04 06:00N 25°48' W 077°42'10413.9 130 / 121017.0 28.023.9
2015-Aug-03 22:33N 25°58' W 079°37'1515.3
2015-Aug-03 21:33N 25°51' W 079°52'1414.1
2015-Aug-03 20:33N 25°46' W 080°06'4 4.2
2015-Aug-03 19:33N 25°47' W 080°11'0 0.0
2015-Aug-03 18:33N 25°47' W 080°11'0 0.0
2015-Aug-03 17:33N 25°47' W 080°11'0 0.0
2015-Aug-03 16:33N 25°47' W 080°11'0 0.0
2015-Aug-03 15:33N 25°47' W 080°11'0 0.0
2015-Aug-03 14:33N 25°47' W 080°11'0 0.0
2015-Aug-03 13:33N 25°47' W 080°11'0 0.0
2015-Aug-03 12:33N 25°47' W 080°11'0 0.0
2015-Aug-03 11:33N 25°47' W 080°11'0 0.0
2015-Aug-03 10:33N 25°47' W 080°11'5 5.4
2015-Aug-03 09:33N 25°46' W 080°05'10 9.6
2015-Aug-03 08:33N 25°50' W 079°55'9 9.1
2015-Aug-03 07:33N 25°55' W 079°46'1311.7
2015-Aug-03 06:26N 26°01' W 079°34'1315.4
2015-Aug-03 05:33N 26°06' W 079°20'120 5.1
2015-Aug-02 06:00N 25°18' W 077°18'129 4.4 120 / 121016.0 28.023.9
2015-Aug-01 00:33N 26°04' W 079°31'1010.3
2015-Jul-31 23:33N 25°59' W 079°41'1010.3
2015-Jul-31 22:33N 25°54' W 079°51'1010.1
2015-Jul-31 21:33N 25°48' W 080°00'9 9.1
2015-Jul-31 20:33N 25°47' W 080°10'0 0.5
2015-Jul-31 19:31N 25°47' W 080°11'0 0.0
2015-Jul-31 18:31N 25°47' W 080°11'0 0.0
2015-Jul-31 17:31N 25°47' W 080°11'0 0.0
2015-Jul-31 16:31N 25°47' W 080°11'0 0.0
2015-Jul-31 15:31N 25°47' W 080°11'0 0.0
2015-Jul-31 14:31N 25°47' W 080°11'0 0.0
2015-Jul-31 13:31N 25°47' W 080°11'0 0.0
2015-Jul-31 12:31N 25°47' W 080°11'0 0.0
2015-Jul-31 11:31N 25°47' W 080°11'0 0.0
2015-Jul-31 10:32N 25°47' W 080°11'5 5.4
2015-Jul-31 09:33N 25°46' W 080°05'1010.2
2015-Jul-31 08:33N 25°41' W 079°55'1313.3
2015-Jul-31 07:33N 25°28' W 079°51'2918.5
2015-Jul-31 06:00N 25°00' W 080°00'40 1.5 180 / 81016.0 29.023.5
2015-Jul-30 03:32N 25°36' W 079°42'1715.8
2015-Jul-30 02:29N 25°48' W 079°29'1516.7
2015-Jul-30 01:33N 25°60' W 079°18'109 5.6
2015-Jul-29 06:00N 25°24' W 077°24'37 1.5 190 / 131016.0 28.023.9
2015-Jul-28 06:00N 25°54' W 077°48'9414.5 170 / 161016.0 28.025.3
2015-Jul-27 23:34N 25°60' W 079°32'1616.1
2015-Jul-27 22:33N 25°53' W 079°48'1514.9
2015-Jul-27 21:34N 25°47' W 080°03'7 6.3
2015-Jul-27 20:31N 25°47' W 080°11'0 0.0
2015-Jul-27 19:31N 25°47' W 080°11'0 0.0
2015-Jul-27 18:31N 25°47' W 080°11'0 0.0
2015-Jul-27 17:31N 25°47' W 080°11'0 0.0
2015-Jul-27 16:31N 25°47' W 080°11'0 0.0
2015-Jul-27 15:31N 25°47' W 080°11'0 0.0
2015-Jul-27 14:31N 25°47' W 080°11'0 0.0
2015-Jul-27 13:28N 25°47' W 080°11'0 0.0
2015-Jul-27 12:31N 25°47' W 080°11'0 0.0
2015-Jul-27 11:31N 25°47' W 080°11'0 0.0
2015-Jul-27 10:33N 25°47' W 080°11'6 6.0
2015-Jul-27 09:34N 25°46' W 080°04'1110.6
2015-Jul-27 08:33N 25°50' W 079°53'1313.2
2015-Jul-27 07:33N 25°56' W 079°40'1514.7
2015-Jul-27 06:33N 26°03' W 079°25'1222.0
2015-Jul-27 06:00N 26°06' W 079°12'4 9.3 200 / 161014.0 27.022.8
2015-Jul-27 05:32N 26°09' W 079°09'9316.8
2015-Jul-27 00:00N 25°42' W 077°30'26 1.5 190 / 51015.0 29.024.9
2015-Jul-26 06:00N 25°18' W 077°18'25 4.1 180 / 61014.0 27.022.8
2015-Jul-26 00:00N 25°42' W 077°24'   230 / 131014.0 27.022.8
Track history (hours):
 
Tides and Currents Weather Stations Pressure Air Temp Water Temp Dewpoint Dewpoint Depression Visibility Wind Speed Wind Dir Waves Ship Positions

Majesty of the Seas (Bahamas)

Last reported at 2015-Aug-04 06:00 UTC. Time now 2015-Aug-04 15:56 UTC.
Position N 25°48' W 077°42'.

Length 268 m; draft 8 m.

Type: Passenger vessel. MMSI: 311734000.

Wind from 130 at 12 knots

Barometer 1017.0 mb
Air temperature 28.0 ° C
Dewpoint 23.9 ° C

Date/timePositionNaut miles runAvg speedWind from/ knotsBaromVisibWave heightAir tempDewpointWater temp
2015-Aug-04 06:00N 25°48' W 077°42'10413.9 130 / 121017.0 28.023.9
2015-Aug-03 22:33N 25°58' W 079°37'1515.3
2015-Aug-03 21:33N 25°51' W 079°52'1414.1
2015-Aug-03 20:33N 25°46' W 080°06'4 4.2
2015-Aug-03 19:33N 25°47' W 080°11'0 0.0
2015-Aug-03 18:33N 25°47' W 080°11'0 0.0
2015-Aug-03 17:33N 25°47' W 080°11'0 0.0
2015-Aug-03 16:33N 25°47' W 080°11'0 0.0
2015-Aug-03 15:33N 25°47' W 080°11'0 0.0
2015-Aug-03 14:33N 25°47' W 080°11'0 0.0
2015-Aug-03 13:33N 25°47' W 080°11'0 0.0
2015-Aug-03 12:33N 25°47' W 080°11'0 0.0
2015-Aug-03 11:33N 25°47' W 080°11'0 0.0
2015-Aug-03 10:33N 25°47' W 080°11'5 5.4
2015-Aug-03 09:33N 25°46' W 080°05'10 9.6
2015-Aug-03 08:33N 25°50' W 079°55'9 9.1
2015-Aug-03 07:33N 25°55' W 079°46'1311.7
2015-Aug-03 06:26N 26°01' W 079°34'1315.4
2015-Aug-03 05:33N 26°06' W 079°20'120 5.1
2015-Aug-02 06:00N 25°18' W 077°18'129 4.4 120 / 121016.0 28.023.9
2015-Aug-01 00:33N 26°04' W 079°31'1010.3
2015-Jul-31 23:33N 25°59' W 079°41'1010.3
2015-Jul-31 22:33N 25°54' W 079°51'1010.1
2015-Jul-31 21:33N 25°48' W 080°00'9 9.1
2015-Jul-31 20:33N 25°47' W 080°10'0 0.5
2015-Jul-31 19:31N 25°47' W 080°11'0 0.0
2015-Jul-31 18:31N 25°47' W 080°11'0 0.0
2015-Jul-31 17:31N 25°47' W 080°11'0 0.0
2015-Jul-31 16:31N 25°47' W 080°11'0 0.0
2015-Jul-31 15:31N 25°47' W 080°11'0 0.0
2015-Jul-31 14:31N 25°47' W 080°11'0 0.0
2015-Jul-31 13:31N 25°47' W 080°11'0 0.0
2015-Jul-31 12:31N 25°47' W 080°11'0 0.0
2015-Jul-31 11:31N 25°47' W 080°11'0 0.0
2015-Jul-31 10:32N 25°47' W 080°11'5 5.4
2015-Jul-31 09:33N 25°46' W 080°05'1010.2
2015-Jul-31 08:33N 25°41' W 079°55'1313.3
2015-Jul-31 07:33N 25°28' W 079°51'2918.5
2015-Jul-31 06:00N 25°00' W 080°00'40 1.5 180 / 81016.0 29.023.5
2015-Jul-30 03:32N 25°36' W 079°42'1715.8
2015-Jul-30 02:29N 25°48' W 079°29'1516.7
2015-Jul-30 01:33N 25°60' W 079°18'109 5.6
2015-Jul-29 06:00N 25°24' W 077°24'37 1.5 190 / 131016.0 28.023.9
2015-Jul-28 06:00N 25°54' W 077°48'9414.5 170 / 161016.0 28.025.3
2015-Jul-27 23:34N 25°60' W 079°32'1616.1
2015-Jul-27 22:33N 25°53' W 079°48'1514.9
2015-Jul-27 21:34N 25°47' W 080°03'7 6.3
2015-Jul-27 20:31N 25°47' W 080°11'0 0.0
2015-Jul-27 19:31N 25°47' W 080°11'0 0.0
2015-Jul-27 18:31N 25°47' W 080°11'0 0.0
2015-Jul-27 17:31N 25°47' W 080°11'0 0.0
2015-Jul-27 16:31N 25°47' W 080°11'0 0.0
2015-Jul-27 15:31N 25°47' W 080°11'0 0.0
2015-Jul-27 14:31N 25°47' W 080°11'0 0.0
2015-Jul-27 13:28N 25°47' W 080°11'0 0.0
2015-Jul-27 12:31N 25°47' W 080°11'0 0.0
2015-Jul-27 11:31N 25°47' W 080°11'0 0.0
2015-Jul-27 10:33N 25°47' W 080°11'6 6.0
2015-Jul-27 09:34N 25°46' W 080°04'1110.6
2015-Jul-27 08:33N 25°50' W 079°53'1313.2
2015-Jul-27 07:33N 25°56' W 079°40'1514.7
2015-Jul-27 06:33N 26°03' W 079°25'1222.0
2015-Jul-27 06:00N 26°06' W 079°12'4 9.3 200 / 161014.0 27.022.8
2015-Jul-27 05:32N 26°09' W 079°09'9316.8
2015-Jul-27 00:00N 25°42' W 077°30'26 1.5 190 / 51015.0 29.024.9
2015-Jul-26 06:00N 25°18' W 077°18'25 4.1 180 / 61014.0 27.022.8
2015-Jul-26 00:00N 25°42' W 077°24'   230 / 131014.0 27.022.8

Dump ship's entire track history